Time;durP1;ratioP1;P1;durP2;ratioP2;P2;SDS_P1;SDS_P2;PMS_P1;PMS_P2;Temp;Humidity;BMP_temperature;BMP_pressure;BME280_temperature;BME280_humidity;BME280_pressure;Samples;Min_cycle;Max_cycle;Signal;HPM_P1;HPM_P2
2022/01/08 10:21:51;;;;;;;;;;;18.30;74.10;;;;;;5126720;27;19930;-79
2022/01/08 10:24:21;;;;;;;;;;;18.30;74.30;;;;;;5127286;28;19919;-78
2022/01/08 10:26:49;;;;;;;;;;;18.60;73.00;;;;;;5116535;27;19915;-81
2022/01/08 10:29:19;;;;;;;;;;;18.90;71.80;;;;;;5119214;27;19914;-79
2022/01/08 10:31:51;;;;;;;;;;;19.20;71.00;;;;;;5120960;27;19931;-79
2022/01/08 10:34:19;;;;;;;;;;;19.40;70.40;;;;;;5126085;27;20344;-79
2022/01/08 10:37:01;;;;;;;;;;;19.50;69.90;;;;;;5126679;27;19912;-77
2022/01/08 10:39:34;;;;;;;;;;;19.60;69.50;;;;;;5120721;27;19922;-78
2022/01/08 10:42:09;;;;;;;;;;;19.80;69.20;;;;;;5125587;27;19907;-78
2022/01/08 10:44:35;;;;;;;;;;;19.90;68.80;;;;;;5125539;27;19914;-78
2022/01/08 10:47:02;;;;;;;;;;;20.00;68.60;;;;;;5125369;27;19916;-78
2022/01/08 10:49:28;;;;;;;;;;;20.00;68.30;;;;;;5125517;27;19919;-79
2022/01/08 10:51:55;;;;;;;;;;;20.10;68.10;;;;;;5125541;27;19912;-78
2022/01/08 10:54:24;;;;;;;;;;;20.10;67.90;;;;;;5123890;27;19908;-78
2022/01/08 10:56:51;;;;;;;;;;;20.20;67.70;;;;;;5133117;27;20378;-77
2022/01/08 10:59:21;;;;;;;;;;;20.30;67.50;;;;;;5148106;27;19907;-79
2022/01/08 11:01:54;;;;;;;;;;;20.20;67.30;;;;;;5128188;27;19969;-79
2022/01/08 11:04:41;;;;;;;;;;;20.30;68.10;;;;;;5125931;27;19916;-77
2022/01/08 11:07:15;;;;;;;;;;;20.30;67.10;;;;;;5119298;28;20287;-79
2022/01/08 11:09:42;;;;;;;;;;;20.40;67.00;;;;;;5125605;28;19947;-79
2022/01/08 11:12:13;;;;;;;;;;;20.40;66.90;;;;;;5126844;27;19962;-79
2022/01/08 11:17:19;;;;;;;;;;;20.50;66.70;;;;;;5127163;27;19953;-78
2022/01/08 11:19:47;;;;;;;;;;;20.50;66.60;;;;;;5132014;27;19919;-76
2022/01/08 11:22:13;;;;;;;;;;;20.50;66.40;;;;;;5133344;27;19914;-78
2022/01/08 11:24:43;;;;;;;;;;;20.50;66.40;;;;;;5124940;27;20269;-77
2022/01/08 11:27:09;;;;;;;;;;;20.50;66.40;;;;;;5125051;27;20513;-74
2022/01/08 11:29:34;;;;;;;;;;;20.60;66.20;;;;;;5125353;27;20430;-76
2022/01/08 11:32:02;;;;;;;;;;;20.60;66.20;;;;;;5118531;27;19912;-76
2022/01/08 11:34:28;;;;;;;;;;;20.60;66.10;;;;;;5110382;28;19960;-77
2022/01/08 11:36:56;;;;;;;;;;;20.60;66.00;;;;;;5111314;28;19922;-75
2022/01/08 11:39:22;;;;;;;;;;;20.70;65.90;;;;;;5110509;27;19919;-76
2022/01/08 11:41:48;;;;;;;;;;;20.70;65.80;;;;;;5112953;28;19923;-77
2022/01/08 11:44:14;;;;;;;;;;;20.70;65.80;;;;;;5111100;28;20072;-81
2022/01/08 11:46:40;;;;;;;;;;;20.70;65.70;;;;;;5111410;27;19981;-78
2022/01/08 11:49:06;;;;;;;;;;;20.70;65.60;;;;;;5111393;28;20402;-76
2022/01/08 11:51:33;;;;;;;;;;;20.70;65.60;;;;;;5111725;27;19908;-78
2022/01/08 11:53:59;;;;;;;;;;;20.70;65.50;;;;;;5110957;28;19908;-79
2022/01/08 11:56:40;;;;;;;;;;;20.70;65.40;;;;;;5111461;27;20002;-74
2022/01/08 11:59:08;;;;;;;;;;;20.80;65.40;;;;;;5111544;28;19952;-74
2022/01/08 12:01:34;;;;;;;;;;;20.80;65.40;;;;;;5111368;28;19915;-76
2022/01/08 12:04:00;;;;;;;;;;;20.80;65.40;;;;;;5119252;27;19911;-73
2022/01/08 12:06:33;;;;;;;;;;;20.80;65.30;;;;;;5112225;27;20386;-73
2022/01/08 12:11:46;;;;;;;;;;;20.90;65.30;;;;;;5111019;28;19918;-74
2022/01/08 12:14:13;;;;;;;;;;;20.80;65.20;;;;;;5110989;28;19962;-74
2022/01/08 12:16:40;;;;;;;;;;;20.90;65.20;;;;;;5111489;28;20255;-74
2022/01/08 12:19:07;;;;;;;;;;;20.90;65.20;;;;;;5110634;28;19920;-74
2022/01/08 12:21:35;;;;;;;;;;;20.90;65.20;;;;;;5110649;28;20410;-74
2022/01/08 12:24:19;;;;;;;;;;;20.90;65.10;;;;;;5109886;28;20375;-74
2022/01/08 12:26:44;;;;;;;;;;;20.90;65.10;;;;;;5111835;28;19932;-74
2022/01/08 12:29:10;;;;;;;;;;;20.90;65.10;;;;;;5110245;28;19979;-77
2022/01/08 12:34:17;;;;;;;;;;;20.90;65.00;;;;;;5110484;28;19918;-76
2022/01/08 12:36:50;;;;;;;;;;;20.90;65.00;;;;;;5109479;27;20682;-75
2022/01/08 12:39:15;;;;;;;;;;;21.00;65.10;;;;;;5109799;28;19980;-78
2022/01/08 12:41:41;;;;;;;;;;;21.00;65.00;;;;;;5109662;28;19916;-77
2022/01/08 12:44:25;;;;;;;;;;;21.00;65.00;;;;;;5108365;28;19963;-78
2022/01/08 12:46:51;;;;;;;;;;;21.00;65.00;;;;;;5109938;28;19923;-75
2022/01/08 12:49:16;;;;;;;;;;;21.00;65.10;;;;;;5110193;28;19933;-75
2022/01/08 12:51:49;;;;;;;;;;;21.00;65.00;;;;;;5109057;28;19908;-75
2022/01/08 12:54:16;;;;;;;;;;;21.00;65.00;;;;;;5109949;28;19911;-76
2022/01/08 12:56:50;;;;;;;;;;;21.00;65.00;;;;;;5109572;28;19916;-76
2022/01/08 12:59:16;;;;;;;;;;;20.90;64.90;;;;;;5109185;28;20329;-78
2022/01/08 13:01:45;;;;;;;;;;;20.90;64.90;;;;;;5108685;28;19916;-77
2022/01/08 13:04:16;;;;;;;;;;;21.00;64.90;;;;;;5110200;27;19912;-76
2022/01/08 13:06:42;;;;;;;;;;;20.90;64.80;;;;;;5108514;28;19912;-75
2022/01/08 13:09:08;;;;;;;;;;;21.00;64.90;;;;;;5109863;28;19927;-76
2022/01/08 13:11:34;;;;;;;;;;;20.90;64.80;;;;;;5109553;28;19916;-77
2022/01/08 13:14:08;;;;;;;;;;;20.90;64.80;;;;;;5110190;28;20367;-75
2022/01/08 13:16:38;;;;;;;;;;;21.00;64.80;;;;;;5110120;28;19912;-77
2022/01/08 13:19:03;;;;;;;;;;;20.90;64.80;;;;;;5109673;28;19912;-75
2022/01/08 13:21:31;;;;;;;;;;;21.00;64.80;;;;;;5109173;28;19976;-76
2022/01/08 13:23:58;;;;;;;;;;;20.90;64.80;;;;;;5108281;28;19919;-76
2022/01/08 13:26:31;;;;;;;;;;;20.90;64.70;;;;;;5109646;27;19908;-76
2022/01/08 13:28:57;;;;;;;;;;;21.00;64.80;;;;;;5106162;28;19965;-77
2022/01/08 13:31:58;;;;;;;;;;;21.00;64.70;;;;;;5108286;28;19912;-76
2022/01/08 13:34:25;;;;;;;;;;;20.90;64.70;;;;;;5066238;28;19909;-75
2022/01/08 13:36:58;;;;;;;;;;;20.90;64.60;;;;;;5083585;28;20440;-76
2022/01/08 13:39:24;;;;;;;;;;;21.00;64.60;;;;;;5098056;28;19916;-78
2022/01/08 13:41:50;;;;;;;;;;;20.90;64.60;;;;;;5109860;28;19920;-78
2022/01/08 13:44:16;;;;;;;;;;;20.90;64.50;;;;;;5109505;28;20406;-77
2022/01/08 13:46:42;;;;;;;;;;;20.90;64.50;;;;;;5108305;28;19920;-77
2022/01/08 13:49:08;;;;;;;;;;;20.90;64.50;;;;;;5107776;28;20302;-76
2022/01/08 13:51:37;;;;;;;;;;;20.90;64.40;;;;;;5106796;28;20346;-77
2022/01/08 13:54:04;;;;;;;;;;;20.90;64.40;;;;;;5107953;27;20374;-77
2022/01/08 13:56:30;;;;;;;;;;;20.90;64.40;;;;;;5106969;28;20275;-77
2022/01/08 13:59:03;;;;;;;;;;;20.90;64.40;;;;;;5107664;28;19995;-77
2022/01/08 14:01:49;;;;;;;;;;;20.90;64.40;;;;;;5105737;28;20010;-75
2022/01/08 14:04:15;;;;;;;;;;;20.90;65.10;;;;;;5107102;28;19915;-76
2022/01/08 14:06:42;;;;;;;;;;;20.90;64.30;;;;;;5106975;28;19931;-75
2022/01/08 14:09:09;;;;;;;;;;;20.90;64.30;;;;;;5107956;28;19916;-78
2022/01/08 14:11:34;;;;;;;;;;;20.90;64.20;;;;;;5108932;28;20294;-75
2022/01/08 14:14:00;;;;;;;;;;;20.90;65.00;;;;;;5110585;27;20027;-75
2022/01/08 14:16:30;;;;;;;;;;;20.90;64.20;;;;;;5102951;27;20007;-76
2022/01/08 14:19:05;;;;;;;;;;;20.90;64.20;;;;;;5106068;28;19911;-75
2022/01/08 14:21:31;;;;;;;;;;;20.90;64.10;;;;;;5112828;28;19926;-77
2022/01/08 14:24:11;;;;;;;;;;;21.00;64.10;;;;;;5105591;28;19915;-76
2022/01/08 14:26:37;;;;;;;;;;;20.90;64.10;;;;;;5107138;28;19911;-75
2022/01/08 14:29:04;;;;;;;;;;;20.90;64.00;;;;;;5119279;28;19917;-76
2022/01/08 14:31:30;;;;;;;;;;;20.90;64.00;;;;;;5109399;27;19911;-76
2022/01/08 14:34:00;;;;;;;;;;;20.90;64.00;;;;;;5118261;28;20012;-75
2022/01/08 14:36:25;;;;;;;;;;;20.90;64.00;;;;;;5107092;27;19919;-76
2022/01/08 14:38:52;;;;;;;;;;;20.90;63.90;;;;;;5124824;28;19911;-76
2022/01/08 14:41:30;;;;;;;;;;;20.90;63.90;;;;;;5126173;27;19915;-76
2022/01/08 14:44:00;;;;;;;;;;;20.90;63.90;;;;;;5104601;28;19916;-76
2022/01/08 14:46:26;;;;;;;;;;;21.00;63.90;;;;;;5104032;28;20346;-76
2022/01/08 14:48:51;;;;;;;;;;;21.00;63.80;;;;;;5105455;28;20391;-76
2022/01/08 14:51:17;;;;;;;;;;;21.00;63.80;;;;;;5106306;28;19961;-76
2022/01/08 14:53:43;;;;;;;;;;;21.00;63.80;;;;;;5107362;28;20143;-77
2022/01/08 14:56:09;;;;;;;;;;;20.90;63.70;;;;;;5101629;28;20402;-76
2022/01/08 14:58:38;;;;;;;;;;;21.00;63.70;;;;;;5106695;28;20030;-76
2022/01/08 15:01:04;;;;;;;;;;;21.00;63.60;;;;;;5107192;28;19920;-76
2022/01/08 15:03:30;;;;;;;;;;;21.00;63.60;;;;;;5106908;28;19922;-76
2022/01/08 15:05:55;;;;;;;;;;;20.90;63.50;;;;;;5105531;28;19918;-76
2022/01/08 15:08:21;;;;;;;;;;;21.00;63.60;;;;;;5110470;27;19912;-76
2022/01/08 15:10:46;;;;;;;;;;;20.90;63.50;;;;;;5130865;27;19911;-76
2022/01/08 15:13:12;;;;;;;;;;;21.00;63.50;;;;;;5122860;27;20010;-77
2022/01/08 15:15:37;;;;;;;;;;;21.00;63.60;;;;;;5131275;27;20775;-77
2022/01/08 15:18:03;;;;;;;;;;;21.00;63.50;;;;;;5131435;27;20041;-75
2022/01/08 15:20:28;;;;;;;;;;;21.00;63.50;;;;;;5123934;27;19934;-75
2022/01/08 15:22:54;;;;;;;;;;;21.00;63.40;;;;;;5109972;28;19912;-75
2022/01/08 15:25:19;;;;;;;;;;;21.00;63.40;;;;;;5109521;28;20010;-77
2022/01/08 15:27:47;;;;;;;;;;;21.00;63.40;;;;;;5120027;27;20331;-76
2022/01/08 15:30:13;;;;;;;;;;;21.00;63.40;;;;;;5131198;27;19921;-77
2022/01/08 15:32:38;;;;;;;;;;;21.00;63.30;;;;;;5130721;27;19919;-77
2022/01/08 15:35:04;;;;;;;;;;;20.90;63.30;;;;;;5125257;27;20249;-77
2022/01/08 15:37:30;;;;;;;;;;;21.00;63.30;;;;;;5130637;27;20445;-76
2022/01/08 15:39:55;;;;;;;;;;;21.00;63.30;;;;;;5128586;27;19923;-75
2022/01/08 15:42:21;;;;;;;;;;;21.00;63.20;;;;;;5129563;27;19908;-76
2022/01/08 15:44:49;;;;;;;;;;;21.00;63.20;;;;;;5120946;27;19911;-77
2022/01/08 15:47:15;;;;;;;;;;;21.00;63.20;;;;;;5110986;27;19923;-76
2022/01/08 15:49:40;;;;;;;;;;;21.00;63.20;;;;;;5109555;28;19911;-78
2022/01/08 15:52:06;;;;;;;;;;;21.00;63.10;;;;;;5109799;27;19923;-77
2022/01/08 15:54:31;;;;;;;;;;;21.00;63.10;;;;;;5107894;27;19918;-75
2022/01/08 15:56:57;;;;;;;;;;;21.00;63.00;;;;;;5108601;27;19907;-76
2022/01/08 15:59:23;;;;;;;;;;;21.00;63.00;;;;;;5109199;27;19911;-77
2022/01/08 16:01:48;;;;;;;;;;;20.90;62.90;;;;;;5109203;27;20038;-77
2022/01/08 16:04:14;;;;;;;;;;;21.00;63.00;;;;;;5112026;27;19917;-78
2022/01/08 16:06:39;;;;;;;;;;;20.90;62.90;;;;;;5108106;28;19911;-78
2022/01/08 16:09:05;;;;;;;;;;;20.90;62.90;;;;;;5106692;28;20585;-77
2022/01/08 16:11:30;;;;;;;;;;;20.90;63.00;;;;;;5107650;28;19907;-75
2022/01/08 16:13:56;;;;;;;;;;;20.90;62.90;;;;;;5106995;28;20344;-77
2022/01/08 16:16:23;;;;;;;;;;;20.90;62.90;;;;;;5107581;28;19907;-76
2022/01/08 16:18:48;;;;;;;;;;;20.90;62.90;;;;;;5106033;27;20474;-77
2022/01/08 16:21:14;;;;;;;;;;;20.90;62.90;;;;;;5109326;27;20019;-76
2022/01/08 16:23:40;;;;;;;;;;;20.90;62.80;;;;;;5108085;28;19935;-76
2022/01/08 16:26:06;;;;;;;;;;;20.90;62.80;;;;;;5106332;28;19908;-76
2022/01/08 16:28:31;;;;;;;;;;;20.90;62.70;;;;;;5107375;28;19919;-76
2022/01/08 16:30:57;;;;;;;;;;;20.90;62.70;;;;;;5107171;27;19918;-77
2022/01/08 16:33:22;;;;;;;;;;;20.90;62.70;;;;;;5107460;27;19911;-77
2022/01/08 16:35:49;;;;;;;;;;;20.90;62.60;;;;;;5108425;27;19916;-77
2022/01/08 16:38:15;;;;;;;;;;;20.90;62.70;;;;;;5109608;27;19918;-77
2022/01/08 16:40:44;;;;;;;;;;;20.90;63.50;;;;;;5107591;28;19966;-78
2022/01/08 16:43:10;;;;;;;;;;;20.90;62.60;;;;;;5107222;27;19916;-77
2022/01/08 16:45:36;;;;;;;;;;;20.90;62.60;;;;;;5107261;28;19956;-76
2022/01/08 16:48:03;;;;;;;;;;;20.90;62.60;;;;;;5107692;27;19916;-75
2022/01/08 16:50:28;;;;;;;;;;;20.90;62.60;;;;;;5105955;27;19915;-75
2022/01/08 16:52:54;;;;;;;;;;;20.90;62.50;;;;;;5107596;28;19907;-75
2022/01/08 16:55:20;;;;;;;;;;;20.90;62.50;;;;;;5105423;28;19912;-76
2022/01/08 16:57:45;;;;;;;;;;;20.90;62.50;;;;;;5108133;28;19931;-76
2022/01/08 17:00:11;;;;;;;;;;;20.90;62.40;;;;;;5110025;28;19998;-76
2022/01/08 17:02:38;;;;;;;;;;;20.90;62.40;;;;;;5111195;27;19911;-76
2022/01/08 17:05:05;;;;;;;;;;;20.90;62.40;;;;;;5112612;27;20049;-75
2022/01/08 17:07:31;;;;;;;;;;;20.90;62.40;;;;;;5119201;27;19956;-81
2022/01/08 17:09:56;;;;;;;;;;;20.90;62.40;;;;;;5117927;27;20002;-80
2022/01/08 17:12:22;;;;;;;;;;;20.90;62.30;;;;;;5119229;27;19935;-81
2022/01/08 17:14:48;;;;;;;;;;;20.90;62.30;;;;;;5130938;27;20036;-82
2022/01/08 17:17:13;;;;;;;;;;;20.90;62.30;;;;;;5121892;27;19956;-81
2022/01/08 17:19:39;;;;;;;;;;;20.90;62.40;;;;;;5108742;27;19937;-79
2022/01/08 17:22:05;;;;;;;;;;;20.90;62.30;;;;;;5111117;27;19912;-88
2022/01/08 17:24:30;;;;;;;;;;;20.90;62.30;;;;;;5124280;27;20354;-81
2022/01/08 17:26:56;;;;;;;;;;;20.90;62.30;;;;;;5127666;27;20333;-83
2022/01/08 17:29:21;;;;;;;;;;;20.90;62.20;;;;;;5107294;28;19911;-82
2022/01/08 17:31:47;;;;;;;;;;;20.90;62.20;;;;;;5108628;28;19915;-82
2022/01/08 17:34:13;;;;;;;;;;;21.00;62.30;;;;;;5108430;27;20081;-82
2022/01/08 17:36:38;;;;;;;;;;;20.90;62.20;;;;;;5107862;27;20119;-80
2022/01/08 17:39:04;;;;;;;;;;;20.90;62.20;;;;;;5108481;27;19954;-79
2022/01/08 17:41:29;;;;;;;;;;;21.00;62.20;;;;;;5107312;27;20368;-86
2022/01/08 17:43:55;;;;;;;;;;;21.00;62.20;;;;;;5107878;28;19912;-79
2022/01/08 17:46:22;;;;;;;;;;;21.00;62.10;;;;;;5108196;28;20406;-79
2022/01/08 17:48:58;;;;;;;;;;;20.90;61.40;;;;;;5104543;27;19916;-81
2022/01/08 17:51:23;;;;;;;;;;;21.00;62.10;;;;;;5105500;28;19916;-82
2022/01/08 17:53:49;;;;;;;;;;;21.00;62.10;;;;;;5104702;28;19915;-82
2022/01/08 17:56:15;;;;;;;;;;;21.00;62.00;;;;;;5106113;28;19915;-84
2022/01/08 17:58:40;;;;;;;;;;;21.00;62.00;;;;;;5105253;28;19969;-82
2022/01/08 18:01:06;;;;;;;;;;;21.00;62.00;;;;;;5105238;28;20324;-83
2022/01/08 18:03:32;;;;;;;;;;;21.00;62.00;;;;;;5105882;28;19915;-80
2022/01/08 18:05:59;;;;;;;;;;;21.00;61.90;;;;;;5105157;28;19911;-81
2022/01/08 18:08:25;;;;;;;;;;;21.10;62.00;;;;;;5104687;28;19977;-83
2022/01/08 18:10:50;;;;;;;;;;;21.10;62.00;;;;;;5103864;28;20380;-83
2022/01/08 18:13:16;;;;;;;;;;;21.10;61.90;;;;;;5106074;28;19912;-83
2022/01/08 18:15:41;;;;;;;;;;;21.10;61.90;;;;;;5118299;28;19908;-82
2022/01/08 18:18:07;;;;;;;;;;;21.10;61.80;;;;;;5103591;28;19944;-79
2022/01/08 18:20:33;;;;;;;;;;;21.10;61.80;;;;;;5104930;28;19953;-77
2022/01/08 18:22:59;;;;;;;;;;;21.10;61.80;;;;;;5105216;28;19950;-79
2022/01/08 18:25:25;;;;;;;;;;;21.20;61.80;;;;;;5103543;28;19915;-79
2022/01/08 18:27:50;;;;;;;;;;;21.10;61.70;;;;;;5105251;28;19920;-78
2022/01/08 18:30:20;;;;;;;;;;;21.20;61.80;;;;;;5105319;28;19919;-81
2022/01/08 18:32:46;;;;;;;;;;;21.10;61.70;;;;;;5105511;28;19912;-79
2022/01/08 18:35:12;;;;;;;;;;;21.20;61.80;;;;;;5103528;28;20306;-79
2022/01/08 18:37:38;;;;;;;;;;;21.10;61.70;;;;;;5104304;28;19939;-79
2022/01/08 18:40:04;;;;;;;;;;;21.10;61.70;;;;;;5103737;28;20367;-79
2022/01/08 18:42:30;;;;;;;;;;;21.20;61.70;;;;;;5104155;28;19951;-79
2022/01/08 18:44:55;;;;;;;;;;;21.20;61.70;;;;;;5104057;28;20401;-79
2022/01/08 18:47:21;;;;;;;;;;;21.20;61.60;;;;;;5096687;28;19926;-81
2022/01/08 18:49:46;;;;;;;;;;;21.20;61.60;;;;;;5085083;28;19909;-80
2022/01/08 18:52:12;;;;;;;;;;;21.20;61.70;;;;;;5082523;28;19944;-80
2022/01/08 18:54:42;;;;;;;;;;;21.10;61.60;;;;;;5083085;28;19916;-81
2022/01/08 18:57:11;;;;;;;;;;;21.20;61.70;;;;;;5084302;28;19969;-79
2022/01/08 18:59:36;;;;;;;;;;;21.20;61.60;;;;;;5075188;28;20292;-79
2022/01/08 19:02:02;;;;;;;;;;;21.10;61.50;;;;;;5070736;28;19909;-79
2022/01/08 19:04:28;;;;;;;;;;;21.20;61.50;;;;;;5072925;28;20326;-79
2022/01/08 19:06:54;;;;;;;;;;;21.20;61.50;;;;;;5083417;28;20372;-78
2022/01/08 19:09:19;;;;;;;;;;;21.20;61.50;;;;;;5071773;28;19915;-79
2022/01/08 19:11:45;;;;;;;;;;;21.20;61.50;;;;;;5071971;28;19912;-81
2022/01/08 19:14:11;;;;;;;;;;;21.20;61.50;;;;;;5070851;28;19958;-78
2022/01/08 19:16:37;;;;;;;;;;;21.20;61.50;;;;;;5070261;28;20312;-81
2022/01/08 19:19:04;;;;;;;;;;;21.10;61.40;;;;;;5056062;28;19912;-80
2022/01/08 19:21:31;;;;;;;;;;;21.20;61.40;;;;;;5088973;28;20288;-78
2022/01/08 19:23:57;;;;;;;;;;;21.10;61.30;;;;;;5070794;28;20422;-80
2022/01/08 19:26:23;;;;;;;;;;;21.20;61.40;;;;;;5082955;28;19912;-81
2022/01/08 19:28:48;;;;;;;;;;;21.10;61.30;;;;;;5091882;28;19924;-79
2022/01/08 19:31:14;;;;;;;;;;;21.10;61.20;;;;;;5090520;28;19919;-86
2022/01/08 19:33:39;;;;;;;;;;;21.10;61.20;;;;;;5091286;28;20114;-78
2022/01/08 19:36:05;;;;;;;;;;;21.10;61.30;;;;;;5090883;28;19954;-79
2022/01/08 19:38:30;;;;;;;;;;;21.10;61.20;;;;;;5090722;28;19908;-80
2022/01/08 19:40:56;;;;;;;;;;;21.10;61.20;;;;;;5082189;28;20296;-79
2022/01/08 19:43:23;;;;;;;;;;;21.10;61.20;;;;;;5070866;28;19948;-80
2022/01/08 19:45:49;;;;;;;;;;;21.20;61.30;;;;;;5068975;28;19956;-80
2022/01/08 19:48:14;;;;;;;;;;;21.10;61.20;;;;;;5083067;28;19927;-79
2022/01/08 19:50:40;;;;;;;;;;;21.10;61.20;;;;;;5089623;28;19917;-79
2022/01/08 19:53:05;;;;;;;;;;;21.20;61.20;;;;;;5088905;28;20342;-83
2022/01/08 19:55:31;;;;;;;;;;;21.10;61.20;;;;;;5088632;28;19912;-81
2022/01/08 19:57:57;;;;;;;;;;;21.20;61.20;;;;;;5089438;28;20326;-81
2022/01/08 20:00:22;;;;;;;;;;;21.20;61.20;;;;;;5089852;28;20012;-78
2022/01/08 20:02:49;;;;;;;;;;;21.10;61.00;;;;;;5090439;28;19912;-80
2022/01/08 20:05:14;;;;;;;;;;;21.10;61.00;;;;;;5089502;28;19931;-83
2022/01/08 20:07:40;;;;;;;;;;;21.10;61.00;;;;;;5088348;28;20428;-82
2022/01/08 20:10:07;;;;;;;;;;;21.10;61.00;;;;;;5088532;28;19912;-80
2022/01/08 20:12:33;;;;;;;;;;;21.10;61.00;;;;;;5088837;28;19940;-80
2022/01/08 20:14:58;;;;;;;;;;;21.10;60.90;;;;;;5089337;28;19948;-81
2022/01/08 20:17:24;;;;;;;;;;;21.10;61.00;;;;;;5089220;28;19978;-80
2022/01/08 20:19:50;;;;;;;;;;;21.10;60.90;;;;;;5090107;28;19919;-82
2022/01/08 20:22:16;;;;;;;;;;;21.10;60.90;;;;;;5089912;28;19915;-82
2022/01/08 20:24:42;;;;;;;;;;;21.10;60.90;;;;;;5089034;28;19955;-80
2022/01/08 20:27:07;;;;;;;;;;;21.10;60.90;;;;;;5088479;28;19959;-79
2022/01/08 20:29:33;;;;;;;;;;;21.10;60.90;;;;;;5089045;28;20295;-80
2022/01/08 20:32:00;;;;;;;;;;;21.10;60.80;;;;;;5088474;28;20610;-79
2022/01/08 20:34:25;;;;;;;;;;;21.10;60.80;;;;;;5089198;28;19908;-80
2022/01/08 20:36:51;;;;;;;;;;;21.10;60.80;;;;;;5089175;28;19950;-81
2022/01/08 20:39:16;;;;;;;;;;;21.10;60.80;;;;;;5089143;28;20383;-80
2022/01/08 20:41:42;;;;;;;;;;;21.10;60.80;;;;;;5087682;28;19962;-82
2022/01/08 20:44:08;;;;;;;;;;;21.10;60.80;;;;;;5087695;28;20299;-79
2022/01/08 20:46:34;;;;;;;;;;;21.00;60.70;;;;;;5072108;28;19975;-81
2022/01/08 20:49:00;;;;;;;;;;;21.00;60.70;;;;;;5089813;28;19923;-80
2022/01/08 20:51:26;;;;;;;;;;;21.00;60.70;;;;;;5089626;28;19915;-83
2022/01/08 20:53:51;;;;;;;;;;;21.10;60.70;;;;;;5087601;28;20006;-84
2022/01/08 20:56:17;;;;;;;;;;;21.00;60.60;;;;;;5089874;28;20318;-88
